Pagrindinis puslapis
METAR-TAF:

METAR-TAF

Oro uostai :

Kuveitas, Kuveitas

platuma: 29-13N, ilguma: 047-59E, Aukštis: 55 m

Dabartinis oras

Ataskaita buvo paskelbta 53 minutes, ne 22:00 UTC
Vėjas 11 kt iš Šiaurės
Temperatūra 35°C
Drėgmė 19%
Slėgis 1007 hPa
Matomumas 10 km arba daugiau
nėra debesų žemiau 1500 m ir nėra kamuolinių lietaus debesų

METAR: OKBK 192200Z 35011KT CAVOK 35/08 Q1007 NOSIG

Laikas: 01:53 (22:53 UTC)

Prognozė

Ataskaita buvo paskelbta 6 valandos ir 8 minutes, ne 16:45 UTC
Prognozė galioja nuo 19 metu 18 UTC su 20 metu 24 UTC
Vėjas 15 kt iš Šiaurės/Šiaurės Vakarų
Matomumas: 7000 m
Giedras dangus

TAF: OKBK 191645Z 1918/2024 33015KT 7000 SKC

Orai ataskaitas ir orų prognozės (METAR, TAF).

turimą stotys yra geltonos ir raudonos taškus žemėlapyje.

Perkelti pele per norėdami pamatyti stoties vardą.

Tada spustelėkite, norėdami matyti oro stebėjimo ir prognozės.

Norėdami pakeisti žemėlapį: spustelėkite ant žalios mygtukų su juodo kryžiaus žemyn,; žalią mygtuką su brūkšneliu, jei norite nutolinti; arba žalių rodyklių gretimoms žemėlapius.


METAR-TAF: